KBKD/BKD METAR and TAF weather

Enter ICAO airport designator
Station Type Date Time Source
KBKD METAR 2020/09/19 18:15 UTC NOAA

KBKD 191815Z AUTO 05003KT 4SM HZ CLR 26/14 A3018 RMK AO2 T02570138


Station Type Date Time Source
KBKD Decoded METAR 2020/09/19 18:15 UTC NOAA

Station name not available
Sep 19, 2020 - 02:15 PM EDT / 2020.09.19 1815 UTC
Wind: from the NE (050 degrees) at 3 MPH (3 KT):0
Visibility: 4 mile(s):0
Sky conditions: clear
Weather: haze
Temperature: 78.3 F (25.7 C)
Dew Point: 56.8 F (13.8 C)
Relative Humidity: 47%
Pressure (altimeter): 30.18 in. Hg (1022 hPa)
ob: KBKD 191815Z AUTO 05003KT 4SM HZ CLR 26/14 A3018 RMK AO2 T02570138
cycle: 18

Station Type Date Time Source
KBKD TAF UTC NOAA

Error!

Example: see airport list